MYGF METAR and TAF weather

Enter ICAO airport designator
Station Type Date Time Source
MYGF METAR 2020/07/13 13:00 UTC NOAA

MYGF 131300Z 24007KT 9999 FEW015CB SCT018TCU 30/26 A3001


Station Type Date Time Source
MYGF Decoded METAR 2020/07/13 13:00 UTC NOAA

Freeport, Grand Bahama, Bahamas, The (MYGF) 26-33N 078-42W 11M
Jul 13, 2020 - 09:00 AM EDT / 2020.07.13 1300 UTC
Wind: from the WSW (240 degrees) at 8 MPH (7 KT):0
Visibility: greater than 7 mile(s):0
Sky conditions: partly cloudy
Weather: Cumulonimbus clouds, towering cumulus clouds observed
Temperature: 86 F (30 C)
Heat index: 99.3 F (37.4 C):1
Dew Point: 78 F (26 C)
Relative Humidity: 79%
Pressure (altimeter): 30.01 in. Hg (1016 hPa)
ob: MYGF 131300Z 24007KT 9999 FEW015CB SCT018TCU 30/26 A3001
cycle: 13

Station Type Date Time Source
MYGF TAF 2020/07/13 12:30 UTC NOAA

TAF MYGF 130930Z 1312/1412 23010KT 9999 VCSH FEW018CB SCT020 BKN220 PROB30
TEMPO 1313/1318 5000 TSRA SCT018CB BKN020

Example: see airport list